Capitol Logistics 219




KRIV
March Air Reserve Base
Riverside, California
KRFD
Chicago/Rockford International Airport
Rockford, Illinois

Activity Log

Date Flight Route Aircraft Duration
03/26/2021 CPX219 TRM J236 TBC J128 HBU J146 IOW RFD B763 3h 20m
04/17/2020 CPX219 SKYES4 TRM J236 TBC J128 HBU J10 OBH J100 DBQ B763 3h 08m
09/14/2019 CPX461 SKYES4 TRM J78 PKE J96 IRK J232 MZV RFD B738 3h 31m
01/07/2019 CPX219 TRM J78 PKE J96 IRK J232 MZV RFD B763 3h 10m

Route Details

Aircraft Information
Primary: Boeing 767-300BDSF
Backup: Boeing 737-800BCF
Route Data
Distance: 1417nm
Duration: 3h 20m
Recm'd Route: TRM J236 TBC J128 HBU J146 IOW RFD
Origin Wx: KRIV 142058Z 34006KT 10SM SCT045 BKN250 18/05 A2995 RMK AO2A SLP138 T01750054 58008
Dest. Wx: KRFD 142054Z 31018G25KT 10SM OVC038 08/M02 A3010 RMK AO2 SLP197 T00781022 55005
Notes: